New Kitakyushu Airport
RJFR : now visible

Airfield :











YOU CAN JOIN US ON...

 
LOGIN :

Register | Disclaimer

   EN    FR    IT 

 









Legend :    VFR   Marginal VFR   IFR   Intensive IFR   Very Intensive IFR
Visi :
Ceiling :
>= 8 km
>= 3000ft
5 to 8 km
1000 to 3000 ft
1500m to 5 km
500 to 1000 ft
800 to 1500m
200 to 500 ft
< 800m
< 200 ft
Symbols :   Thunderstorms  Fog  Heavy snow  Heavy precipitations  Wind > 20 kt







- Airport Elevation : 21 ft
- IATA code : KKJ


RJFR - New Kitakyushu

CURRENT METAR :
  • 190500Z VRB04KT 9999 FEW015 SCT060 BKN100 28/24 Q1008

EXPIRED METARs :
  • 190400Z 14010KT 7000 FEW010 SCT060 BKN100 28/25 Q1008

TAF TAF RJFR
Valid from the 19 at 00:00 until the 20 at 06:00 UTC


182308Z 1900/2006 06006KT 7000 -SHRA FEW008 SCT010 BKN015
BECMG 1900/1902 10010KT
TEMPO 1900/1902 3000 SHRA BR FEW005 BKN008 BKN010
TEMPO 1902/1906 1500 +SHRA BR FEW003 BKN005 BKN008
TEMPO 1906/1915 3000 SHRA BR FEW005 BKN008 BKN010
TEMPO 1915/2000 4000 -SHRA BR
No reported NOTAMs for that airfield.



MET'MAP, your aeronautical weather chart ! - Copyright ORBIFLY December 2007 - Disclaimer

ORBIFLY MET'MAP TEAM :

Programming & Development : Alexandra Zaïnal
Concept & Development : Baudouin d'Aumeries
Co-Development & Prog : Marc-Olivier Méhu
Technical & hardware support : Manuel Goepfert

Contact : metmap@orbifly.com




SOURCES & CREDITS :

   NOAA       Earth
Advisory